createdAt,value
2022-10-21T00:01:41.232Z,91.88
2022-10-21T00:04:07.952Z,91.21
2022-10-21T00:06:34.797Z,91.06
2022-10-21T00:09:01.473Z,90.97
2022-10-21T00:11:28.275Z,91.29
2022-10-21T00:13:55.118Z,91.82
2022-10-21T00:16:21.838Z,91.83
2022-10-21T00:18:49.001Z,91.79
2022-10-21T00:21:18.946Z,92.48
2022-10-21T00:23:46.182Z,91.79
2022-10-21T00:26:14.098Z,92.01
2022-10-21T00:28:41.310Z,92.10
2022-10-21T00:31:12.421Z,91.99
2022-10-21T00:33:39.201Z,91.48
2022-10-21T00:36:07.732Z,91.42
2022-10-21T00:38:35.587Z,91.28
2022-10-21T00:41:02.898Z,91.24
2022-10-21T00:43:29.760Z,91.56
2022-10-21T00:46:02.178Z,91.66
2022-10-21T00:48:36.367Z,92.24
2022-10-21T00:51:07.668Z,92.10
2022-10-21T00:53:36.756Z,92.37
2022-10-21T00:56:14.150Z,92.55
2022-10-21T00:58:45.782Z,92.85
2022-10-21T01:01:15.199Z,92.85
2022-10-21T01:03:43.398Z,92.29
2022-10-21T01:06:12.719Z,92.51
2022-10-21T01:08:39.868Z,92.72
2022-10-21T01:11:13.394Z,92.60
2022-10-21T01:14:09.443Z,93.26
2022-10-21T01:17:20.787Z,93.29
2022-10-21T01:20:18.967Z,93.32
2022-10-21T01:23:31.751Z,92.53
2022-10-21T01:26:34.443Z,93.05
2022-10-21T01:29:27.379Z,92.99
2022-10-21T01:32:07.372Z,93.51
2022-10-21T01:34:50.344Z,92.70
2022-10-21T01:37:25.615Z,94.06
2022-10-21T01:39:57.238Z,93.95
2022-10-21T01:42:58.158Z,94.22
2022-10-21T01:46:00.115Z,94.58
2022-10-21T01:48:34.394Z,94.63
2022-10-21T01:51:07.137Z,95.13
2022-10-21T01:53:41.485Z,94.52
2022-10-21T01:56:11.202Z,93.69
2022-10-21T01:58:42.373Z,94.16
2022-10-21T02:01:13.176Z,93.80
2022-10-21T02:03:42.671Z,93.96
2022-10-21T02:06:09.600Z,94.29
2022-10-21T02:08:36.338Z,94.41
2022-10-21T02:11:07.134Z,94.70
2022-10-21T02:13:40.466Z,94.55
2022-10-21T02:16:10.062Z,94.58
2022-10-21T02:18:36.855Z,94.71
2022-10-21T02:21:08.642Z,95.08
2022-10-21T02:23:54.004Z,95.31
2022-10-21T02:26:26.041Z,95.02
2022-10-21T02:28:55.067Z,94.82
2022-10-21T02:31:57.942Z,95.55
2022-10-21T02:34:55.584Z,94.91
2022-10-21T02:38:01.228Z,95.03
2022-10-21T02:40:37.427Z,95.02
2022-10-21T02:43:09.537Z,94.10
2022-10-21T02:45:36.335Z,94.04
2022-10-21T02:48:04.088Z,94.88
2022-10-21T02:50:31.253Z,94.66
2022-10-21T02:52:58.098Z,94.97
2022-10-21T02:55:25.105Z,95.63
2022-10-21T02:57:51.707Z,94.66
2022-10-21T03:00:18.416Z,95.54
2022-10-21T03:02:44.999Z,94.62
2022-10-21T03:05:13.143Z,95.01
2022-10-21T03:07:41.286Z,95.76
2022-10-21T03:10:08.804Z,95.50
2022-10-21T03:12:35.559Z,95.96
2022-10-21T03:15:02.334Z,96.43
2022-10-21T03:17:29.114Z,95.80
2022-10-21T03:19:56.230Z,95.62
2022-10-21T03:22:22.824Z,95.59
2022-10-21T03:24:49.395Z,95.97
2022-10-21T03:27:16.034Z,96.46
2022-10-21T03:29:42.735Z,95.82
2022-10-21T03:32:09.323Z,96.61
2022-10-21T03:34:35.935Z,95.92
2022-10-21T03:37:02.497Z,95.77
2022-10-21T03:39:29.052Z,94.94
2022-10-21T03:41:56.753Z,94.82
2022-10-21T03:44:23.605Z,94.73
2022-10-21T03:46:50.150Z,94.23
2022-10-21T03:49:21.456Z,94.35
2022-10-21T03:51:48.480Z,95.11
2022-10-21T03:54:15.347Z,95.01
2022-10-21T03:56:42.441Z,96.16
2022-10-21T03:59:09.775Z,96.53
2022-10-21T04:01:36.682Z,96.69
2022-10-21T04:04:03.701Z,96.76
2022-10-21T04:06:30.455Z,96.81
2022-10-21T04:08:57.331Z,97.64
2022-10-21T04:11:24.175Z,97.20
2022-10-21T04:13:50.794Z,97.00
2022-10-21T04:16:20.139Z,96.76
2022-10-21T04:18:46.943Z,96.36
2022-10-21T04:21:14.402Z,96.20
2022-10-21T04:23:41.416Z,96.16
2022-10-21T04:26:08.282Z,96.43
2022-10-21T04:28:35.162Z,96.05
2022-10-21T04:31:02.322Z,95.86
2022-10-21T04:33:29.087Z,96.16
2022-10-21T04:35:56.005Z,95.86
2022-10-21T04:38:23.391Z,96.25
2022-10-21T04:41:01.273Z,95.57
2022-10-21T04:43:28.607Z,95.63
2022-10-21T04:45:55.536Z,96.11
2022-10-21T04:48:22.727Z,95.78
2022-10-21T04:50:53.497Z,95.98
2022-10-21T04:53:21.238Z,96.09
2022-10-21T04:55:54.021Z,95.97
2022-10-21T04:58:22.386Z,95.96
2022-10-21T05:00:50.649Z,95.99
2022-10-21T05:03:18.304Z,95.84
2022-10-21T05:05:45.087Z,96.21
2022-10-21T05:08:11.933Z,96.40
2022-10-21T05:10:38.760Z,96.09
2022-10-21T05:13:06.171Z,96.70
2022-10-21T05:15:33.893Z,95.54
2022-10-21T05:18:00.795Z,96.96
2022-10-21T05:20:27.478Z,96.25
2022-10-21T05:22:54.092Z,96.82
2022-10-21T05:25:21.954Z,97.61
2022-10-21T05:27:49.511Z,97.13
2022-10-21T05:30:16.264Z,98.25
2022-10-21T05:32:43.182Z,97.63
2022-10-21T05:35:12.016Z,98.45
2022-10-21T05:37:38.791Z,98.37
2022-10-21T05:40:06.412Z,99.11
2022-10-21T05:42:33.047Z,98.24
2022-10-21T05:44:59.825Z,98.89
2022-10-21T05:47:27.816Z,98.37
2022-10-21T05:49:54.434Z,97.97
2022-10-21T05:52:21.013Z,98.07
2022-10-21T05:54:47.756Z,97.51
2022-10-21T05:57:15.099Z,96.84
2022-10-21T05:59:41.886Z,97.44
2022-10-21T06:02:10.248Z,97.13
2022-10-21T06:04:38.730Z,96.66
2022-10-21T06:07:05.691Z,96.26
2022-10-21T06:09:32.702Z,96.22
2022-10-21T06:11:59.488Z,96.49
2022-10-21T06:14:26.851Z,96.74
2022-10-21T06:16:53.455Z,95.77
2022-10-21T06:19:20.070Z,96.41
2022-10-21T06:21:47.945Z,95.71
2022-10-21T06:24:15.011Z,95.54
2022-10-21T06:26:41.931Z,95.45
2022-10-21T06:29:08.523Z,95.83
2022-10-21T06:31:35.163Z,95.67
2022-10-21T06:34:01.994Z,95.55
2022-10-21T06:36:30.520Z,94.92
2022-10-21T06:38:58.417Z,94.86
2022-10-21T06:41:25.059Z,95.31
2022-10-21T06:43:51.663Z,95.79
2022-10-21T06:46:18.669Z,95.62
2022-10-21T06:48:45.409Z,95.77
2022-10-21T06:51:23.395Z,95.14
2022-10-21T06:53:55.245Z,94.79
2022-10-21T06:56:23.005Z,95.24
2022-10-21T06:58:50.809Z,94.56
2022-10-21T07:01:34.673Z,93.88
2022-10-21T07:04:09.770Z,94.14
2022-10-21T07:06:36.871Z,93.17
2022-10-21T07:09:05.386Z,93.15
2022-10-21T07:11:32.092Z,93.79
2022-10-21T07:14:00.594Z,92.96
2022-10-21T07:16:30.864Z,93.45
2022-10-21T07:18:58.062Z,93.64
2022-10-21T07:21:28.065Z,92.37
2022-10-21T07:23:59.074Z,92.85
2022-10-21T07:26:27.415Z,92.75
2022-10-21T07:28:55.847Z,92.58
2022-10-21T07:31:22.571Z,92.98
2022-10-21T07:33:49.657Z,92.75
2022-10-21T07:36:19.683Z,91.54
2022-10-21T07:38:47.936Z,92.18
2022-10-21T07:41:20.083Z,90.78
2022-10-21T07:43:46.916Z,91.18
2022-10-21T07:46:14.025Z,91.21
2022-10-21T07:48:40.615Z,90.49
2022-10-21T07:51:10.523Z,91.70
2022-10-21T07:53:37.850Z,91.11
2022-10-21T07:56:11.122Z,91.43
2022-10-21T07:58:38.499Z,90.71
2022-10-21T08:01:07.666Z,90.93
2022-10-21T08:03:34.848Z,90.32
2022-10-21T08:06:02.021Z,90.27
2022-10-21T08:08:29.184Z,89.86
2022-10-21T08:10:56.131Z,89.87
2022-10-21T08:13:23.104Z,90.04
2022-10-21T08:15:53.183Z,90.32
2022-10-21T08:18:21.315Z,90.06
2022-10-21T08:20:49.477Z,89.02
2022-10-21T08:23:21.026Z,89.18
2022-10-21T08:25:49.846Z,88.92
2022-10-21T08:28:16.934Z,87.95
2022-10-21T08:30:44.660Z,88.29
2022-10-21T08:33:12.630Z,86.64
2022-10-21T08:35:40.108Z,87.03
2022-10-21T08:40:44.994Z,86.96
2022-10-21T08:43:23.506Z,87.25
2022-10-21T08:46:03.390Z,86.76
2022-10-21T08:48:37.204Z,86.54
2022-10-21T08:51:07.229Z,86.67
2022-10-21T08:53:41.453Z,86.21
2022-10-21T08:56:18.716Z,85.01
2022-10-21T08:58:51.247Z,84.69
2022-10-21T09:01:43.168Z,84.72
2022-10-21T09:04:27.351Z,85.43
2022-10-21T09:07:38.010Z,86.08
2022-10-21T09:10:30.818Z,85.34
2022-10-21T09:13:20.491Z,85.37
2022-10-21T09:16:23.732Z,84.62
2022-10-21T09:19:19.910Z,84.31
2022-10-21T09:22:34.910Z,84.80
2022-10-21T09:25:31.448Z,84.02
2022-10-21T09:27:59.973Z,84.28
2022-10-21T09:30:27.098Z,84.20
2022-10-21T09:32:59.773Z,84.35
2022-10-21T09:35:44.061Z,83.68
2022-10-21T09:38:39.384Z,84.13
2022-10-21T09:43:50.270Z,84.13
2022-10-21T09:46:17.602Z,84.09
2022-10-21T09:49:16.348Z,82.42
2022-10-21T09:51:39.067Z,82.44
2022-10-21T09:54:11.796Z,82.00
2022-10-21T09:57:24.141Z,82.02
2022-10-21T10:00:00.409Z,81.35
2022-10-21T10:02:47.717Z,82.22
2022-10-21T10:05:33.839Z,82.30
2022-10-21T10:08:00.573Z,82.73
2022-10-21T10:10:34.277Z,81.73
2022-10-21T10:13:01.125Z,83.06
2022-10-21T10:15:36.048Z,82.87
2022-10-21T10:18:03.587Z,83.32
2022-10-21T10:20:30.391Z,83.24
2022-10-21T10:23:18.646Z,83.52
2022-10-21T10:25:51.035Z,83.11
2022-10-21T10:28:19.828Z,83.01
2022-10-21T10:30:52.575Z,83.75
2022-10-21T10:33:23.260Z,84.11
2022-10-21T10:36:03.317Z,83.76
2022-10-21T10:38:35.343Z,83.99
2022-10-21T10:41:04.609Z,83.20
2022-10-21T10:43:33.837Z,84.03
2022-10-21T10:46:07.362Z,83.31
2022-10-21T10:48:53.499Z,83.65
2022-10-21T10:51:35.093Z,84.35
2022-10-21T10:54:28.488Z,84.00
2022-10-21T10:57:05.630Z,84.39
2022-10-21T11:00:01.312Z,83.92
2022-10-21T11:03:10.024Z,83.56
2022-10-21T11:05:51.067Z,83.55
2022-10-21T11:08:37.131Z,83.62
2022-10-21T11:11:17.891Z,83.28
2022-10-21T11:13:44.598Z,83.65
2022-10-21T11:16:59.524Z,83.74
2022-10-21T11:19:54.920Z,84.29
2022-10-21T11:23:09.164Z,83.32
2022-10-21T11:25:47.485Z,83.07
2022-10-21T11:28:30.381Z,82.72
2022-10-21T11:34:23.834Z,82.36
2022-10-21T11:37:10.517Z,82.38
2022-10-21T11:40:17.551Z,82.07
2022-10-21T11:42:48.464Z,82.85
2022-10-21T11:45:38.146Z,82.66
2022-10-21T11:48:52.630Z,82.33
2022-10-21T11:52:04.863Z,81.75
2022-10-21T11:55:17.644Z,82.33
2022-10-21T11:58:22.766Z,81.23
2022-10-21T12:01:05.657Z,82.42
2022-10-21T12:04:11.397Z,81.85
2022-10-21T12:07:11.398Z,81.15
2022-10-21T12:10:04.207Z,81.96
2022-10-21T12:12:36.806Z,81.75
2022-10-21T12:15:11.976Z,81.35
2022-10-21T12:17:38.984Z,81.35
2022-10-21T12:20:27.188Z,81.58
2022-10-21T12:23:01.104Z,80.92
2022-10-21T12:25:40.732Z,80.59
2022-10-21T12:28:38.879Z,81.18
2022-10-21T12:31:45.499Z,81.45
2022-10-21T12:34:13.442Z,82.26
2022-10-21T12:36:46.749Z,82.89
2022-10-21T12:39:37.957Z,82.73
2022-10-21T12:42:18.541Z,83.06
2022-10-21T12:44:47.762Z,83.18
2022-10-21T12:47:45.090Z,83.82
2022-10-21T12:50:34.434Z,84.47
2022-10-21T12:53:21.289Z,85.98
2022-10-21T12:55:51.727Z,84.89
2022-10-21T12:58:41.357Z,85.32
2022-10-21T13:01:45.255Z,85.63
2022-10-21T13:04:32.053Z,84.02
2022-10-21T13:07:06.471Z,83.38
2022-10-21T13:09:50.874Z,82.19
2022-10-21T13:12:28.565Z,82.28
2022-10-21T13:15:22.174Z,83.37
2022-10-21T13:17:54.648Z,82.88
2022-10-21T13:20:41.331Z,82.57
2022-10-21T13:23:32.148Z,83.60
2022-10-21T13:26:06.690Z,83.33
2022-10-21T13:28:34.273Z,83.10
2022-10-21T13:31:01.255Z,82.27
2022-10-21T13:33:33.329Z,83.04
2022-10-21T13:36:04.094Z,83.31
2022-10-21T13:38:33.507Z,82.31
2022-10-21T13:41:22.931Z,82.34
2022-10-21T13:43:58.973Z,82.91
2022-10-21T13:46:39.128Z,83.19
2022-10-21T13:49:32.560Z,83.05
2022-10-21T13:51:59.245Z,82.97
2022-10-21T13:54:25.995Z,83.70
2022-10-21T13:56:52.522Z,83.83
2022-10-21T13:59:25.736Z,83.08
2022-10-21T14:01:55.014Z,82.66
2022-10-21T14:04:28.720Z,83.18
2022-10-21T14:06:58.578Z,83.62
2022-10-21T14:09:33.778Z,83.48
2022-10-21T14:12:07.561Z,83.50
2022-10-21T14:14:38.126Z,83.42
2022-10-21T14:17:14.688Z,83.87
2022-10-21T14:19:41.893Z,83.32
2022-10-21T14:22:10.696Z,83.84
2022-10-21T14:24:45.313Z,83.66
2022-10-21T14:27:25.728Z,83.43
2022-10-21T14:29:52.455Z,84.14
2022-10-21T14:32:23.534Z,84.42
2022-10-21T14:35:29.677Z,83.70
2022-10-21T14:38:16.123Z,83.86
2022-10-21T14:40:42.784Z,83.38
2022-10-21T14:43:20.682Z,84.26
2022-10-21T14:45:50.673Z,83.94
2022-10-21T14:48:45.262Z,84.89
2022-10-21T14:51:17.756Z,84.92
2022-10-21T14:54:04.135Z,85.39
2022-10-21T14:56:38.536Z,85.62
2022-10-21T14:59:24.987Z,85.14
2022-10-21T15:01:52.655Z,85.43
2022-10-21T15:04:43.623Z,85.67
2022-10-21T15:07:24.609Z,85.50
2022-10-21T15:10:23.628Z,85.87
2022-10-21T15:12:51.649Z,86.32
2022-10-21T15:15:44.465Z,87.17
2022-10-21T15:18:43.297Z,86.71
2022-10-21T15:21:12.485Z,86.24
2022-10-21T15:23:49.043Z,86.63
2022-10-21T15:26:40.158Z,86.46
2022-10-21T15:29:18.854Z,87.38
2022-10-21T15:31:45.571Z,86.88
2022-10-21T15:34:14.497Z,87.30
2022-10-21T15:36:42.177Z,87.56
2022-10-21T15:39:09.835Z,87.84
2022-10-21T15:41:37.263Z,87.80
2022-10-21T15:44:13.791Z,88.07
2022-10-21T15:46:46.291Z,88.31
2022-10-21T15:49:22.048Z,88.77
2022-10-21T15:51:49.719Z,89.21
2022-10-21T15:54:17.894Z,89.27
2022-10-21T15:56:46.228Z,90.07
2022-10-21T15:59:34.191Z,90.18
2022-10-21T16:02:02.259Z,90.18
2022-10-21T16:04:28.867Z,90.13
2022-10-21T16:06:55.523Z,90.27
2022-10-21T16:09:25.227Z,89.96
2022-10-21T16:12:01.446Z,90.85
2022-10-21T16:14:30.824Z,91.69
2022-10-21T16:16:58.637Z,92.37
2022-10-21T16:19:25.370Z,92.68
2022-10-21T16:21:51.972Z,93.32
2022-10-21T16:24:18.872Z,93.18
2022-10-21T16:26:48.318Z,93.56
2022-10-21T16:29:23.132Z,93.05
2022-10-21T16:31:50.157Z,93.16
2022-10-21T16:34:17.053Z,93.30
2022-10-21T16:36:44.006Z,93.25
2022-10-21T16:39:16.890Z,93.17
2022-10-21T16:41:43.461Z,93.43
2022-10-21T16:44:10.551Z,93.35
2022-10-21T16:46:40.101Z,93.25
2022-10-21T16:49:20.898Z,93.35
2022-10-21T16:51:47.470Z,93.52
2022-10-21T16:54:15.243Z,93.84
2022-10-21T16:56:41.851Z,93.69
2022-10-21T16:59:08.551Z,94.54
2022-10-21T17:01:35.562Z,94.35
2022-10-21T17:04:02.189Z,94.78
2022-10-21T17:06:28.969Z,95.64
2022-10-21T17:08:56.333Z,95.22
2022-10-21T17:11:34.699Z,95.24
2022-10-21T17:14:03.228Z,96.14
2022-10-21T17:16:29.785Z,95.83
2022-10-21T17:18:56.486Z,95.83
2022-10-21T17:21:26.514Z,95.32
2022-10-21T17:23:54.511Z,95.90
2022-10-21T17:26:21.359Z,95.25
2022-10-21T17:28:48.198Z,96.06
2022-10-21T17:31:25.787Z,96.73
2022-10-21T17:33:55.346Z,97.12
2022-10-21T17:36:22.139Z,97.66
2022-10-21T17:38:48.918Z,97.74
2022-10-21T17:41:17.134Z,97.53
2022-10-21T17:43:43.779Z,97.93
2022-10-21T17:46:17.393Z,97.58
2022-10-21T17:48:44.276Z,97.23
2022-10-21T17:51:10.871Z,96.88
2022-10-21T17:53:37.490Z,96.18
2022-10-21T17:56:06.952Z,96.24
2022-10-21T17:58:34.663Z,96.47
2022-10-21T18:01:08.659Z,97.16
2022-10-21T18:03:35.863Z,97.34
2022-10-21T18:06:08.477Z,97.30
2022-10-21T18:08:35.391Z,97.77
2022-10-21T18:11:02.754Z,98.01
2022-10-21T18:13:30.658Z,98.44
2022-10-21T18:16:03.608Z,98.22
2022-10-21T18:18:30.323Z,98.85
2022-10-21T18:21:20.025Z,98.70
2022-10-21T18:23:50.259Z,98.77
2022-10-21T18:26:20.337Z,99.24
2022-10-21T18:28:54.485Z,98.68
2022-10-21T18:31:21.696Z,99.28
2022-10-21T18:33:49.159Z,99.61
2022-10-21T18:36:17.426Z,99.82
2022-10-21T18:38:44.754Z,100.00
2022-10-21T18:41:20.149Z,100.00
2022-10-21T18:43:56.489Z,99.93
2022-10-21T18:46:23.744Z,99.77
2022-10-21T18:48:50.638Z,100.00
2022-10-21T18:51:19.120Z,100.00
2022-10-21T18:53:49.882Z,100.00
2022-10-21T18:56:20.459Z,100.00
2022-10-21T18:58:47.122Z,100.00
2022-10-21T19:01:15.195Z,100.00
2022-10-21T19:03:42.233Z,100.00
2022-10-21T19:06:39.525Z,100.00
2022-10-21T19:09:18.359Z,100.00
2022-10-21T19:11:45.922Z,100.00
2022-10-21T19:14:14.673Z,100.00
2022-10-21T19:16:42.891Z,100.00
2022-10-21T19:19:09.919Z,100.00
2022-10-21T19:21:36.967Z,100.00
2022-10-21T19:24:04.321Z,100.00
2022-10-21T19:26:32.523Z,100.00
2022-10-21T19:29:04.828Z,100.00
2022-10-21T19:31:36.044Z,100.00
2022-10-21T19:34:04.478Z,100.00
2022-10-21T19:36:31.051Z,100.00
2022-10-21T19:38:57.609Z,100.00
2022-10-21T19:41:24.451Z,100.00
2022-10-21T19:43:51.836Z,100.00
2022-10-21T19:46:25.671Z,100.00
2022-10-21T19:48:52.990Z,100.00
2022-10-21T19:51:22.558Z,100.00
2022-10-21T19:53:50.279Z,100.00
2022-10-21T19:56:20.897Z,100.00
2022-10-21T19:58:50.737Z,100.00
2022-10-21T20:01:21.221Z,100.00
2022-10-21T20:03:49.769Z,100.00
2022-10-21T20:06:25.806Z,100.00
2022-10-21T20:08:58.232Z,100.00
2022-10-21T20:11:25.078Z,100.00
2022-10-21T20:13:52.230Z,100.00
2022-10-21T20:16:29.561Z,100.00
2022-10-21T20:18:57.215Z,100.00
2022-10-21T20:21:25.075Z,100.00
2022-10-21T20:23:51.835Z,100.00
2022-10-21T20:26:19.370Z,100.00
2022-10-21T20:28:46.313Z,100.00
2022-10-21T20:31:15.216Z,100.00
2022-10-21T20:33:47.530Z,100.00
2022-10-21T20:36:17.871Z,100.00
2022-10-21T20:38:45.427Z,100.00
2022-10-21T20:41:15.599Z,100.00
2022-10-21T20:43:42.694Z,100.00
2022-10-21T20:46:12.193Z,100.00
2022-10-21T20:48:48.172Z,100.00
2022-10-21T20:51:21.059Z,100.00
2022-10-21T20:54:09.589Z,100.00
2022-10-21T20:56:38.594Z,100.00
2022-10-21T20:59:07.069Z,100.00
2022-10-21T21:01:37.050Z,100.00
2022-10-21T21:04:08.197Z,100.00
2022-10-21T21:06:40.098Z,100.00
2022-10-21T21:09:43.653Z,100.00
2022-10-21T21:11:54.002Z,100.00
2022-10-21T21:14:20.810Z,100.00
2022-10-21T21:16:47.413Z,100.00
2022-10-21T21:19:14.104Z,100.00
2022-10-21T21:21:40.943Z,100.00
2022-10-21T21:24:07.763Z,100.00
2022-10-21T21:26:36.571Z,100.00
2022-10-21T21:29:06.208Z,100.00
2022-10-21T21:31:34.025Z,100.00
2022-10-21T21:34:00.619Z,100.00
2022-10-21T21:36:27.348Z,100.00
2022-10-21T21:38:54.174Z,100.00
2022-10-21T21:41:23.299Z,100.00
2022-10-21T21:43:51.260Z,100.00
2022-10-21T21:46:25.441Z,100.00
2022-10-21T21:49:05.535Z,100.00
2022-10-21T21:51:35.265Z,100.00
2022-10-21T21:54:02.418Z,100.00
2022-10-21T21:56:29.453Z,100.00
2022-10-21T21:58:57.852Z,100.00
2022-10-21T22:01:27.515Z,99.71
2022-10-21T22:03:55.325Z,99.61
2022-10-21T22:08:56.344Z,99.48
2022-10-21T22:11:25.283Z,99.59
2022-10-21T22:13:52.633Z,99.46
2022-10-21T22:16:24.393Z,99.48
2022-10-21T22:18:51.395Z,99.50
2022-10-21T22:21:18.686Z,98.64
2022-10-21T22:23:45.661Z,98.89
2022-10-21T22:26:13.784Z,99.05
2022-10-21T22:28:40.961Z,100.00
2022-10-21T22:31:10.982Z,100.00
2022-10-21T22:33:38.865Z,100.00
2022-10-21T22:36:06.298Z,100.00
2022-10-21T22:38:33.565Z,100.00
2022-10-21T22:41:02.402Z,100.00
2022-10-21T22:43:29.844Z,100.00
2022-10-21T22:46:05.338Z,100.00
2022-10-21T22:48:41.988Z,100.00
2022-10-21T22:51:08.777Z,100.00
2022-10-21T22:53:36.609Z,100.00
2022-10-21T22:56:03.931Z,100.00
2022-10-21T22:58:30.808Z,100.00
2022-10-21T23:00:57.685Z,100.00
2022-10-21T23:03:24.827Z,100.00
2022-10-21T23:05:51.460Z,100.00
2022-10-21T23:08:18.613Z,100.00
2022-10-21T23:10:49.021Z,100.00
2022-10-21T23:13:15.837Z,100.00
2022-10-21T23:15:42.565Z,100.00
2022-10-21T23:18:09.264Z,100.00
2022-10-21T23:20:35.848Z,100.00
2022-10-21T23:23:02.473Z,100.00
2022-10-21T23:25:29.231Z,100.00
2022-10-21T23:27:55.875Z,100.00
2022-10-21T23:30:22.951Z,100.00
2022-10-21T23:32:50.239Z,100.00
2022-10-21T23:35:17.130Z,100.00
2022-10-21T23:37:44.048Z,100.00
2022-10-21T23:40:11.706Z,100.00
2022-10-21T23:42:42.655Z,100.00
2022-10-21T23:45:11.240Z,100.00
2022-10-21T23:47:39.567Z,100.00
2022-10-21T23:50:07.901Z,100.00
2022-10-21T23:52:34.753Z,100.00
2022-10-21T23:55:01.636Z,100.00
2022-10-21T23:57:28.240Z,100.00
2022-10-21T23:59:54.785Z,100.00
